DTW weather

Detroit Metropolitan Wayne County Airport
Detroit, Michigan, United States

Public forecast

Using degrees Fahrenheit for public forecast. Weather courtesy of forecast.io.

METAR (pilot weather report)

Retrieved 2017/03/29 08:53 UTC (18 minutes ago):

KDTW 290853Z 00000KT 10SM CLR 02/M01 A3024

TAF (pilot weather forecast)

Retrieved 2017/03/29 06:24 UTC (3 hours ago):

TAF KDTW 290521Z 2906/3012 03005KT P6SM SKC FM291400 04008KT P6SM FEW028 SCT200 FM292000 05008KT P6SM OVC150 FM300200 04006KT P6SM OVC100